sensor_id;sensor_type;location;lat;lon;timestamp;temperature;humidity
10121;DHT22;5100;45.176;5.714;2023-09-08T00:01:58;25.60;61.60
10121;DHT22;5100;45.176;5.714;2023-09-08T00:04:25;25.60;61.60
10121;DHT22;5100;45.176;5.714;2023-09-08T00:06:51;25.60;61.60
10121;DHT22;5100;45.176;5.714;2023-09-08T00:09:17;25.60;61.70
10121;DHT22;5100;45.176;5.714;2023-09-08T00:11:43;25.60;61.80
10121;DHT22;5100;45.176;5.714;2023-09-08T00:14:09;25.60;61.80
10121;DHT22;5100;45.176;5.714;2023-09-08T00:16:35;25.50;61.90
10121;DHT22;5100;45.176;5.714;2023-09-08T00:19:01;25.50;62.00
10121;DHT22;5100;45.176;5.714;2023-09-08T00:21:27;25.50;62.10
10121;DHT22;5100;45.176;5.714;2023-09-08T00:23:53;25.50;62.30
10121;DHT22;5100;45.176;5.714;2023-09-08T00:26:38;25.40;62.40
10121;DHT22;5100;45.176;5.714;2023-09-08T00:29:04;25.40;62.60
10121;DHT22;5100;45.176;5.714;2023-09-08T00:31:31;25.40;62.70
10121;DHT22;5100;45.176;5.714;2023-09-08T00:33:57;25.30;62.80
10121;DHT22;5100;45.176;5.714;2023-09-08T00:36:23;25.30;62.80
10121;DHT22;5100;45.176;5.714;2023-09-08T00:38:49;25.30;62.90
10121;DHT22;5100;45.176;5.714;2023-09-08T00:41:15;25.30;62.90
10121;DHT22;5100;45.176;5.714;2023-09-08T00:43:42;25.20;62.90
10121;DHT22;5100;45.176;5.714;2023-09-08T00:46:13;25.20;62.90
10121;DHT22;5100;45.176;5.714;2023-09-08T00:48:39;25.20;62.90
10121;DHT22;5100;45.176;5.714;2023-09-08T00:51:06;25.20;62.90
10121;DHT22;5100;45.176;5.714;2023-09-08T00:53:34;25.10;63.00
10121;DHT22;5100;45.176;5.714;2023-09-08T00:56:00;25.10;63.10
10121;DHT22;5100;45.176;5.714;2023-09-08T00:58:26;25.10;63.20
10121;DHT22;5100;45.176;5.714;2023-09-08T01:00:53;25.10;63.30
10121;DHT22;5100;45.176;5.714;2023-09-08T01:03:20;25.10;63.30
10121;DHT22;5100;45.176;5.714;2023-09-08T01:05:46;25.00;63.40
10121;DHT22;5100;45.176;5.714;2023-09-08T01:08:15;25.00;63.50
10121;DHT22;5100;45.176;5.714;2023-09-08T01:10:41;25.00;63.50
10121;DHT22;5100;45.176;5.714;2023-09-08T01:13:08;25.00;63.60
10121;DHT22;5100;45.176;5.714;2023-09-08T01:15:35;25.00;63.70
10121;DHT22;5100;45.176;5.714;2023-09-08T01:18:01;25.00;63.70
10121;DHT22;5100;45.176;5.714;2023-09-08T01:20:56;24.90;63.80
10121;DHT22;5100;45.176;5.714;2023-09-08T01:26:12;24.90;64.10
10121;DHT22;5100;45.176;5.714;2023-09-08T01:28:40;24.80;64.10
10121;DHT22;5100;45.176;5.714;2023-09-08T01:31:07;24.80;64.20
10121;DHT22;5100;45.176;5.714;2023-09-08T01:33:34;24.80;64.30
10121;DHT22;5100;45.176;5.714;2023-09-08T01:36:01;24.80;64.40
10121;DHT22;5100;45.176;5.714;2023-09-08T01:38:27;24.80;64.40
10121;DHT22;5100;45.176;5.714;2023-09-08T01:40:53;24.70;64.40
10121;DHT22;5100;45.176;5.714;2023-09-08T01:43:20;24.70;64.40
10121;DHT22;5100;45.176;5.714;2023-09-08T01:45:45;24.70;64.60
10121;DHT22;5100;45.176;5.714;2023-09-08T01:48:12;24.60;64.60
10121;DHT22;5100;45.176;5.714;2023-09-08T01:50:38;24.60;64.70
10121;DHT22;5100;45.176;5.714;2023-09-08T01:53:04;24.60;64.70
10121;DHT22;5100;45.176;5.714;2023-09-08T01:55:30;24.60;64.80
10121;DHT22;5100;45.176;5.714;2023-09-08T01:57:56;24.50;64.80
10121;DHT22;5100;45.176;5.714;2023-09-08T02:00:22;24.50;64.90
10121;DHT22;5100;45.176;5.714;2023-09-08T02:02:50;24.50;64.90
10121;DHT22;5100;45.176;5.714;2023-09-08T02:05:16;24.50;65.00
10121;DHT22;5100;45.176;5.714;2023-09-08T02:07:42;24.50;65.00
10121;DHT22;5100;45.176;5.714;2023-09-08T02:10:08;24.40;65.10
10121;DHT22;5100;45.176;5.714;2023-09-08T02:12:35;24.40;65.20
10121;DHT22;5100;45.176;5.714;2023-09-08T02:15:02;24.40;65.30
10121;DHT22;5100;45.176;5.714;2023-09-08T02:17:29;24.40;65.30
10121;DHT22;5100;45.176;5.714;2023-09-08T02:19:56;24.40;65.30
10121;DHT22;5100;45.176;5.714;2023-09-08T02:22:22;24.40;65.40
10121;DHT22;5100;45.176;5.714;2023-09-08T02:24:48;24.40;65.40
10121;DHT22;5100;45.176;5.714;2023-09-08T02:27:15;24.40;65.50
10121;DHT22;5100;45.176;5.714;2023-09-08T02:29:41;24.40;65.50
10121;DHT22;5100;45.176;5.714;2023-09-08T02:32:07;24.40;65.50
10121;DHT22;5100;45.176;5.714;2023-09-08T02:34:35;24.30;65.60
10121;DHT22;5100;45.176;5.714;2023-09-08T02:37:03;24.30;65.60
10121;DHT22;5100;45.176;5.714;2023-09-08T02:39:29;24.30;65.60
10121;DHT22;5100;45.176;5.714;2023-09-08T02:41:55;24.30;65.60
10121;DHT22;5100;45.176;5.714;2023-09-08T02:44:21;24.20;65.70
10121;DHT22;5100;45.176;5.714;2023-09-08T02:46:51;24.20;65.70
10121;DHT22;5100;45.176;5.714;2023-09-08T02:49:18;24.20;65.80
10121;DHT22;5100;45.176;5.714;2023-09-08T02:51:44;24.20;65.80
10121;DHT22;5100;45.176;5.714;2023-09-08T02:54:10;24.10;65.80
10121;DHT22;5100;45.176;5.714;2023-09-08T02:56:36;24.10;65.80
10121;DHT22;5100;45.176;5.714;2023-09-08T02:59:02;24.10;65.90
10121;DHT22;5100;45.176;5.714;2023-09-08T03:01:28;24.10;66.00
10121;DHT22;5100;45.176;5.714;2023-09-08T03:03:55;24.00;66.00
10121;DHT22;5100;45.176;5.714;2023-09-08T03:06:21;24.00;66.10
10121;DHT22;5100;45.176;5.714;2023-09-08T03:08:47;24.00;66.20
10121;DHT22;5100;45.176;5.714;2023-09-08T03:11:14;24.00;66.20
10121;DHT22;5100;45.176;5.714;2023-09-08T03:13:40;24.00;66.20
10121;DHT22;5100;45.176;5.714;2023-09-08T03:16:07;23.90;66.30
10121;DHT22;5100;45.176;5.714;2023-09-08T03:18:34;23.90;66.30
10121;DHT22;5100;45.176;5.714;2023-09-08T03:21:03;23.90;66.30
10121;DHT22;5100;45.176;5.714;2023-09-08T03:23:40;23.90;66.30
10121;DHT22;5100;45.176;5.714;2023-09-08T03:26:06;23.90;66.40
10121;DHT22;5100;45.176;5.714;2023-09-08T03:28:34;23.90;66.40
10121;DHT22;5100;45.176;5.714;2023-09-08T03:31:03;23.90;66.50
10121;DHT22;5100;45.176;5.714;2023-09-08T03:33:31;23.90;66.50
10121;DHT22;5100;45.176;5.714;2023-09-08T03:35:58;23.90;66.50
10121;DHT22;5100;45.176;5.714;2023-09-08T03:38:24;23.90;66.50
10121;DHT22;5100;45.176;5.714;2023-09-08T03:40:52;23.90;66.50
10121;DHT22;5100;45.176;5.714;2023-09-08T03:43:18;23.90;66.50
10121;DHT22;5100;45.176;5.714;2023-09-08T03:45:45;23.80;66.50
10121;DHT22;5100;45.176;5.714;2023-09-08T03:48:11;23.80;66.50
10121;DHT22;5100;45.176;5.714;2023-09-08T03:50:37;23.80;66.50
10121;DHT22;5100;45.176;5.714;2023-09-08T03:53:03;23.80;66.50
10121;DHT22;5100;45.176;5.714;2023-09-08T03:55:29;23.80;66.60
10121;DHT22;5100;45.176;5.714;2023-09-08T03:57:55;23.80;66.60
10121;DHT22;5100;45.176;5.714;2023-09-08T04:00:22;23.70;66.70
10121;DHT22;5100;45.176;5.714;2023-09-08T04:02:49;23.70;66.80
10121;DHT22;5100;45.176;5.714;2023-09-08T04:05:16;23.70;66.90
10121;DHT22;5100;45.176;5.714;2023-09-08T04:07:44;23.70;66.90
10121;DHT22;5100;45.176;5.714;2023-09-08T04:10:10;23.70;67.00
10121;DHT22;5100;45.176;5.714;2023-09-08T04:12:36;23.70;67.00
10121;DHT22;5100;45.176;5.714;2023-09-08T04:15:03;23.70;67.10
10121;DHT22;5100;45.176;5.714;2023-09-08T04:17:29;23.70;67.10
10121;DHT22;5100;45.176;5.714;2023-09-08T04:19:55;23.60;67.10
10121;DHT22;5100;45.176;5.714;2023-09-08T04:22:21;23.60;67.20
10121;DHT22;5100;45.176;5.714;2023-09-08T04:24:47;23.60;67.20
10121;DHT22;5100;45.176;5.714;2023-09-08T04:27:13;23.60;67.20
10121;DHT22;5100;45.176;5.714;2023-09-08T04:29:39;23.60;67.20
10121;DHT22;5100;45.176;5.714;2023-09-08T04:32:06;23.60;67.30
10121;DHT22;5100;45.176;5.714;2023-09-08T04:34:39;23.60;67.30
10121;DHT22;5100;45.176;5.714;2023-09-08T04:37:06;23.60;67.40
10121;DHT22;5100;45.176;5.714;2023-09-08T04:39:33;23.60;67.40
10121;DHT22;5100;45.176;5.714;2023-09-08T04:41:59;23.60;67.40
10121;DHT22;5100;45.176;5.714;2023-09-08T04:44:25;23.50;67.40
10121;DHT22;5100;45.176;5.714;2023-09-08T04:46:52;23.60;67.50
10121;DHT22;5100;45.176;5.714;2023-09-08T04:49:18;23.50;67.50
10121;DHT22;5100;45.176;5.714;2023-09-08T04:51:45;23.50;67.50
10121;DHT22;5100;45.176;5.714;2023-09-08T04:54:11;23.50;67.50
10121;DHT22;5100;45.176;5.714;2023-09-08T04:56:39;23.50;67.50
10121;DHT22;5100;45.176;5.714;2023-09-08T04:59:05;23.50;67.60
10121;DHT22;5100;45.176;5.714;2023-09-08T05:01:32;23.50;67.60
10121;DHT22;5100;45.176;5.714;2023-09-08T05:03:59;23.40;67.60
10121;DHT22;5100;45.176;5.714;2023-09-08T05:06:26;23.40;67.60
10121;DHT22;5100;45.176;5.714;2023-09-08T05:08:52;23.40;67.60
10121;DHT22;5100;45.176;5.714;2023-09-08T05:11:19;23.40;67.60
10121;DHT22;5100;45.176;5.714;2023-09-08T05:13:48;23.40;67.60
10121;DHT22;5100;45.176;5.714;2023-09-08T05:16:15;23.40;67.60
10121;DHT22;5100;45.176;5.714;2023-09-08T05:18:42;23.40;67.60
10121;DHT22;5100;45.176;5.714;2023-09-08T05:21:08;23.40;67.60
10121;DHT22;5100;45.176;5.714;2023-09-08T05:23:34;23.40;67.60
10121;DHT22;5100;45.176;5.714;2023-09-08T05:26:00;23.40;67.60
10121;DHT22;5100;45.176;5.714;2023-09-08T05:28:27;23.40;67.60
10121;DHT22;5100;45.176;5.714;2023-09-08T05:30:54;23.40;67.60
10121;DHT22;5100;45.176;5.714;2023-09-08T05:33:20;23.40;67.60
10121;DHT22;5100;45.176;5.714;2023-09-08T05:35:46;23.30;67.60
10121;DHT22;5100;45.176;5.714;2023-09-08T05:38:14;23.30;67.60
10121;DHT22;5100;45.176;5.714;2023-09-08T05:40:40;23.30;67.60
10121;DHT22;5100;45.176;5.714;2023-09-08T05:43:06;23.30;67.70
10121;DHT22;5100;45.176;5.714;2023-09-08T05:45:32;23.30;67.70
10121;DHT22;5100;45.176;5.714;2023-09-08T05:47:59;23.30;67.80
10121;DHT22;5100;45.176;5.714;2023-09-08T05:50:26;23.30;67.80
10121;DHT22;5100;45.176;5.714;2023-09-08T05:52:53;23.30;67.80
10121;DHT22;5100;45.176;5.714;2023-09-08T05:55:19;23.30;67.80
10121;DHT22;5100;45.176;5.714;2023-09-08T05:57:45;23.30;68.00
10121;DHT22;5100;45.176;5.714;2023-09-08T06:00:12;23.40;68.00
10121;DHT22;5100;45.176;5.714;2023-09-08T06:02:38;23.60;67.60
10121;DHT22;5100;45.176;5.714;2023-09-08T06:05:06;23.60;67.40
10121;DHT22;5100;45.176;5.714;2023-09-08T06:07:33;23.80;67.10
10121;DHT22;5100;45.176;5.714;2023-09-08T06:09:59;23.90;66.90
10121;DHT22;5100;45.176;5.714;2023-09-08T06:12:27;24.00;66.70
10121;DHT22;5100;45.176;5.714;2023-09-08T06:14:53;24.10;66.50
10121;DHT22;5100;45.176;5.714;2023-09-08T06:17:19;24.20;66.30
10121;DHT22;5100;45.176;5.714;2023-09-08T06:19:46;24.20;66.10
10121;DHT22;5100;45.176;5.714;2023-09-08T06:22:12;24.30;65.90
10121;DHT22;5100;45.176;5.714;2023-09-08T06:24:38;24.40;65.80
10121;DHT22;5100;45.176;5.714;2023-09-08T06:27:05;24.40;65.60
10121;DHT22;5100;45.176;5.714;2023-09-08T06:29:33;24.40;65.60
10121;DHT22;5100;45.176;5.714;2023-09-08T06:32:00;24.50;65.40
10121;DHT22;5100;45.176;5.714;2023-09-08T06:34:26;24.60;65.40
10121;DHT22;5100;45.176;5.714;2023-09-08T06:36:52;24.60;65.30
10121;DHT22;5100;45.176;5.714;2023-09-08T06:39:18;24.70;65.10
10121;DHT22;5100;45.176;5.714;2023-09-08T06:41:44;24.80;64.90
10121;DHT22;5100;45.176;5.714;2023-09-08T06:44:11;24.80;64.80
10121;DHT22;5100;45.176;5.714;2023-09-08T06:46:38;24.90;64.70
10121;DHT22;5100;45.176;5.714;2023-09-08T06:49:05;24.90;64.70
10121;DHT22;5100;45.176;5.714;2023-09-08T06:51:31;25.00;64.60
10121;DHT22;5100;45.176;5.714;2023-09-08T06:53:58;25.00;64.60
10121;DHT22;5100;45.176;5.714;2023-09-08T06:56:26;25.00;64.50
10121;DHT22;5100;45.176;5.714;2023-09-08T06:58:52;25.10;64.50
10121;DHT22;5100;45.176;5.714;2023-09-08T07:01:19;25.10;64.30
10121;DHT22;5100;45.176;5.714;2023-09-08T07:03:45;25.10;64.20
10121;DHT22;5100;45.176;5.714;2023-09-08T07:06:12;25.20;64.20
10121;DHT22;5100;45.176;5.714;2023-09-08T07:08:38;25.20;64.10
10121;DHT22;5100;45.176;5.714;2023-09-08T07:11:04;25.20;64.10
10121;DHT22;5100;45.176;5.714;2023-09-08T07:13:30;25.20;64.00
10121;DHT22;5100;45.176;5.714;2023-09-08T07:15:56;25.20;64.00
10121;DHT22;5100;45.176;5.714;2023-09-08T07:18:23;25.20;64.00
10121;DHT22;5100;45.176;5.714;2023-09-08T07:20:49;25.20;64.10
10121;DHT22;5100;45.176;5.714;2023-09-08T07:23:19;25.10;64.10
10121;DHT22;5100;45.176;5.714;2023-09-08T07:25:49;25.10;64.10
10121;DHT22;5100;45.176;5.714;2023-09-08T07:28:16;25.10;64.10
10121;DHT22;5100;45.176;5.714;2023-09-08T07:30:42;25.10;64.10
10121;DHT22;5100;45.176;5.714;2023-09-08T07:33:09;25.20;64.20
10121;DHT22;5100;45.176;5.714;2023-09-08T07:35:39;25.20;64.20
10121;DHT22;5100;45.176;5.714;2023-09-08T07:38:05;25.30;64.20
10121;DHT22;5100;45.176;5.714;2023-09-08T07:40:33;25.30;64.10
10121;DHT22;5100;45.176;5.714;2023-09-08T07:42:59;25.40;64.00
10121;DHT22;5100;45.176;5.714;2023-09-08T07:45:25;25.40;63.80
10121;DHT22;5100;45.176;5.714;2023-09-08T07:47:52;25.50;63.80
10121;DHT22;5100;45.176;5.714;2023-09-08T07:50:23;25.50;63.80
10121;DHT22;5100;45.176;5.714;2023-09-08T07:52:50;25.60;63.70
10121;DHT22;5100;45.176;5.714;2023-09-08T07:55:17;25.60;63.60
10121;DHT22;5100;45.176;5.714;2023-09-08T07:57:45;25.70;63.50
10121;DHT22;5100;45.176;5.714;2023-09-08T08:00:15;25.70;63.30
10121;DHT22;5100;45.176;5.714;2023-09-08T08:02:53;25.70;63.20
10121;DHT22;5100;45.176;5.714;2023-09-08T08:05:20;25.80;63.10
10121;DHT22;5100;45.176;5.714;2023-09-08T08:07:46;25.80;63.00
10121;DHT22;5100;45.176;5.714;2023-09-08T08:10:12;25.90;62.80
10121;DHT22;5100;45.176;5.714;2023-09-08T08:12:39;25.90;62.70
10121;DHT22;5100;45.176;5.714;2023-09-08T08:15:06;25.90;62.70
10121;DHT22;5100;45.176;5.714;2023-09-08T08:17:32;25.90;62.60
10121;DHT22;5100;45.176;5.714;2023-09-08T08:19:58;26.00;62.50
10121;DHT22;5100;45.176;5.714;2023-09-08T08:22:25;26.00;62.40
10121;DHT22;5100;45.176;5.714;2023-09-08T08:24:51;26.00;62.20
10121;DHT22;5100;45.176;5.714;2023-09-08T08:27:17;26.00;62.10
10121;DHT22;5100;45.176;5.714;2023-09-08T08:29:43;26.10;62.10
10121;DHT22;5100;45.176;5.714;2023-09-08T08:32:09;26.10;62.00
10121;DHT22;5100;45.176;5.714;2023-09-08T08:34:36;26.10;61.90
10121;DHT22;5100;45.176;5.714;2023-09-08T08:37:03;26.10;61.90
10121;DHT22;5100;45.176;5.714;2023-09-08T08:39:29;26.20;61.70
10121;DHT22;5100;45.176;5.714;2023-09-08T08:41:55;26.20;61.60
10121;DHT22;5100;45.176;5.714;2023-09-08T08:44:21;26.20;61.40
10121;DHT22;5100;45.176;5.714;2023-09-08T08:46:48;26.20;61.10
10121;DHT22;5100;45.176;5.714;2023-09-08T08:49:15;26.30;61.00
10121;DHT22;5100;45.176;5.714;2023-09-08T08:51:44;26.30;61.00
10121;DHT22;5100;45.176;5.714;2023-09-08T08:54:15;26.30;60.90
10121;DHT22;5100;45.176;5.714;2023-09-08T08:56:42;26.30;60.80
10121;DHT22;5100;45.176;5.714;2023-09-08T08:59:10;26.30;60.70
10121;DHT22;5100;45.176;5.714;2023-09-08T09:01:37;26.30;60.60
10121;DHT22;5100;45.176;5.714;2023-09-08T09:04:05;26.40;60.60
10121;DHT22;5100;45.176;5.714;2023-09-08T09:06:32;26.40;60.60
10121;DHT22;5100;45.176;5.714;2023-09-08T09:08:59;26.40;60.50
10121;DHT22;5100;45.176;5.714;2023-09-08T09:11:25;26.40;60.40
10121;DHT22;5100;45.176;5.714;2023-09-08T09:13:51;26.50;60.30
10121;DHT22;5100;45.176;5.714;2023-09-08T09:16:17;26.50;60.40
10121;DHT22;5100;45.176;5.714;2023-09-08T09:18:57;26.50;60.40
10121;DHT22;5100;45.176;5.714;2023-09-08T09:21:25;26.50;60.40
10121;DHT22;5100;45.176;5.714;2023-09-08T09:24:06;26.50;60.40
10121;DHT22;5100;45.176;5.714;2023-09-08T09:26:32;26.50;60.40
10121;DHT22;5100;45.176;5.714;2023-09-08T09:28:58;26.50;60.40
10121;DHT22;5100;45.176;5.714;2023-09-08T09:31:25;26.50;60.40
10121;DHT22;5100;45.176;5.714;2023-09-08T09:34:04;26.60;60.40
10121;DHT22;5100;45.176;5.714;2023-09-08T09:36:31;26.60;60.40
10121;DHT22;5100;45.176;5.714;2023-09-08T09:38:59;26.60;60.30
10121;DHT22;5100;45.176;5.714;2023-09-08T09:41:27;26.60;60.10
10121;DHT22;5100;45.176;5.714;2023-09-08T09:43:55;26.70;60.00
10121;DHT22;5100;45.176;5.714;2023-09-08T09:46:21;26.70;60.00
10121;DHT22;5100;45.176;5.714;2023-09-08T09:48:51;26.70;60.00
10121;DHT22;5100;45.176;5.714;2023-09-08T09:51:20;26.70;60.00
10121;DHT22;5100;45.176;5.714;2023-09-08T09:53:46;26.70;59.90
10121;DHT22;5100;45.176;5.714;2023-09-08T09:56:15;26.80;59.60
10121;DHT22;5100;45.176;5.714;2023-09-08T09:58:42;26.80;59.40
10121;DHT22;5100;45.176;5.714;2023-09-08T10:01:10;26.80;59.60
10121;DHT22;5100;45.176;5.714;2023-09-08T10:03:40;26.80;59.70
10121;DHT22;5100;45.176;5.714;2023-09-08T10:06:06;26.90;59.90
10121;DHT22;5100;45.176;5.714;2023-09-08T10:08:34;26.90;59.70
10121;DHT22;5100;45.176;5.714;2023-09-08T10:11:06;26.90;59.60
10121;DHT22;5100;45.176;5.714;2023-09-08T10:13:39;26.90;59.70
10121;DHT22;5100;45.176;5.714;2023-09-08T10:16:09;26.90;59.40
10121;DHT22;5100;45.176;5.714;2023-09-08T10:18:39;26.90;59.30
10121;DHT22;5100;45.176;5.714;2023-09-08T10:21:09;27.00;59.20
10121;DHT22;5100;45.176;5.714;2023-09-08T10:23:47;27.00;59.20
10121;DHT22;5100;45.176;5.714;2023-09-08T10:26:17;27.00;59.10
10121;DHT22;5100;45.176;5.714;2023-09-08T10:28:44;27.00;58.90
10121;DHT22;5100;45.176;5.714;2023-09-08T10:31:10;27.00;58.60
10121;DHT22;5100;45.176;5.714;2023-09-08T10:33:38;27.10;58.30
10121;DHT22;5100;45.176;5.714;2023-09-08T10:36:05;27.10;58.10
10121;DHT22;5100;45.176;5.714;2023-09-08T10:38:33;27.10;57.90
10121;DHT22;5100;45.176;5.714;2023-09-08T10:43:58;27.10;57.70
10121;DHT22;5100;45.176;5.714;2023-09-08T10:46:28;27.10;57.60
10121;DHT22;5100;45.176;5.714;2023-09-08T10:48:55;27.10;57.50
10121;DHT22;5100;45.176;5.714;2023-09-08T10:51:22;27.20;57.60
10121;DHT22;5100;45.176;5.714;2023-09-08T10:53:50;27.20;57.20
10121;DHT22;5100;45.176;5.714;2023-09-08T10:56:17;27.20;57.10
10121;DHT22;5100;45.176;5.714;2023-09-08T10:58:51;27.20;57.20
10121;DHT22;5100;45.176;5.714;2023-09-08T11:01:20;27.20;56.60
10121;DHT22;5100;45.176;5.714;2023-09-08T11:03:53;27.30;56.30
10121;DHT22;5100;45.176;5.714;2023-09-08T11:06:21;27.30;56.00
10121;DHT22;5100;45.176;5.714;2023-09-08T11:08:55;27.30;55.10
10121;DHT22;5100;45.176;5.714;2023-09-08T11:11:22;27.30;54.70
10121;DHT22;5100;45.176;5.714;2023-09-08T11:13:48;27.40;54.50
10121;DHT22;5100;45.176;5.714;2023-09-08T11:16:14;27.40;54.10
10121;DHT22;5100;45.176;5.714;2023-09-08T11:18:41;27.40;53.50
10121;DHT22;5100;45.176;5.714;2023-09-08T11:21:09;27.50;53.10
10121;DHT22;5100;45.176;5.714;2023-09-08T11:23:36;27.50;53.00
10121;DHT22;5100;45.176;5.714;2023-09-08T11:26:03;27.50;53.40
10121;DHT22;5100;45.176;5.714;2023-09-08T11:28:29;27.60;53.20
10121;DHT22;5100;45.176;5.714;2023-09-08T11:30:55;27.60;52.90
10121;DHT22;5100;45.176;5.714;2023-09-08T11:33:22;27.60;52.80
10121;DHT22;5100;45.176;5.714;2023-09-08T11:35:51;27.70;52.80
10121;DHT22;5100;45.176;5.714;2023-09-08T11:38:29;27.70;52.70
10121;DHT22;5100;45.176;5.714;2023-09-08T11:40:58;27.70;52.70
10121;DHT22;5100;45.176;5.714;2023-09-08T11:43:25;27.70;52.40
10121;DHT22;5100;45.176;5.714;2023-09-08T11:45:51;27.80;52.20
10121;DHT22;5100;45.176;5.714;2023-09-08T11:48:18;27.80;52.10
10121;DHT22;5100;45.176;5.714;2023-09-08T11:50:45;27.80;51.90
10121;DHT22;5100;45.176;5.714;2023-09-08T11:53:10;27.90;52.00
10121;DHT22;5100;45.176;5.714;2023-09-08T11:55:37;27.90;52.20
10121;DHT22;5100;45.176;5.714;2023-09-08T11:58:03;27.90;52.40
10121;DHT22;5100;45.176;5.714;2023-09-08T12:00:30;28.00;52.40
10121;DHT22;5100;45.176;5.714;2023-09-08T12:03:09;28.00;52.40
10121;DHT22;5100;45.176;5.714;2023-09-08T12:05:36;28.00;52.40
10121;DHT22;5100;45.176;5.714;2023-09-08T12:08:04;28.00;52.40
10121;DHT22;5100;45.176;5.714;2023-09-08T12:10:38;28.00;52.40
10121;DHT22;5100;45.176;5.714;2023-09-08T12:13:04;28.10;52.30
10121;DHT22;5100;45.176;5.714;2023-09-08T12:15:40;28.10;52.40
10121;DHT22;5100;45.176;5.714;2023-09-08T12:18:08;28.10;52.40
10121;DHT22;5100;45.176;5.714;2023-09-08T12:20:35;28.10;51.90
10121;DHT22;5100;45.176;5.714;2023-09-08T12:23:03;28.10;52.10
10121;DHT22;5100;45.176;5.714;2023-09-08T12:25:30;28.20;52.00
10121;DHT22;5100;45.176;5.714;2023-09-08T12:28:00;28.20;52.00
10121;DHT22;5100;45.176;5.714;2023-09-08T12:30:27;28.20;51.60
10121;DHT22;5100;45.176;5.714;2023-09-08T12:32:59;28.20;51.30
10121;DHT22;5100;45.176;5.714;2023-09-08T12:35:26;28.30;51.40
10121;DHT22;5100;45.176;5.714;2023-09-08T12:37:59;28.30;51.40
10121;DHT22;5100;45.176;5.714;2023-09-08T12:40:28;28.30;51.40
10121;DHT22;5100;45.176;5.714;2023-09-08T12:42:54;28.30;51.40
10121;DHT22;5100;45.176;5.714;2023-09-08T12:45:22;28.30;51.20
10121;DHT22;5100;45.176;5.714;2023-09-08T12:47:49;28.40;51.10
10121;DHT22;5100;45.176;5.714;2023-09-08T12:50:15;28.40;51.30
10121;DHT22;5100;45.176;5.714;2023-09-08T12:52:41;28.40;51.20
10121;DHT22;5100;45.176;5.714;2023-09-08T12:55:08;28.40;50.60
10121;DHT22;5100;45.176;5.714;2023-09-08T12:57:35;28.40;50.30
10121;DHT22;5100;45.176;5.714;2023-09-08T13:00:04;28.50;49.90
10121;DHT22;5100;45.176;5.714;2023-09-08T13:02:31;28.50;50.00
10121;DHT22;5100;45.176;5.714;2023-09-08T13:04:57;28.50;49.70
10121;DHT22;5100;45.176;5.714;2023-09-08T13:07:24;28.50;49.60
10121;DHT22;5100;45.176;5.714;2023-09-08T13:09:50;28.60;49.90
10121;DHT22;5100;45.176;5.714;2023-09-08T13:12:16;28.60;49.80
10121;DHT22;5100;45.176;5.714;2023-09-08T13:14:43;28.60;49.70
10121;DHT22;5100;45.176;5.714;2023-09-08T13:17:12;28.70;49.80
10121;DHT22;5100;45.176;5.714;2023-09-08T13:19:41;28.70;49.30
10121;DHT22;5100;45.176;5.714;2023-09-08T13:22:07;28.70;49.60
10121;DHT22;5100;45.176;5.714;2023-09-08T13:24:34;28.70;49.90
10121;DHT22;5100;45.176;5.714;2023-09-08T13:27:00;28.70;50.00
10121;DHT22;5100;45.176;5.714;2023-09-08T13:29:26;28.80;50.10
10121;DHT22;5100;45.176;5.714;2023-09-08T13:31:56;28.80;50.10
10121;DHT22;5100;45.176;5.714;2023-09-08T13:34:23;28.80;50.20
10121;DHT22;5100;45.176;5.714;2023-09-08T13:36:49;28.80;50.50
10121;DHT22;5100;45.176;5.714;2023-09-08T13:39:16;28.80;50.70
10121;DHT22;5100;45.176;5.714;2023-09-08T13:41:55;28.80;50.70
10121;DHT22;5100;45.176;5.714;2023-09-08T13:44:23;28.90;50.50
10121;DHT22;5100;45.176;5.714;2023-09-08T13:46:50;28.90;50.40
10121;DHT22;5100;45.176;5.714;2023-09-08T13:49:17;28.90;50.50
10121;DHT22;5100;45.176;5.714;2023-09-08T13:51:44;28.90;50.80
10121;DHT22;5100;45.176;5.714;2023-09-08T13:54:11;28.90;50.70
10121;DHT22;5100;45.176;5.714;2023-09-08T13:56:40;28.90;50.50
10121;DHT22;5100;45.176;5.714;2023-09-08T13:59:08;28.90;50.60
10121;DHT22;5100;45.176;5.714;2023-09-08T14:01:35;28.90;50.70
10121;DHT22;5100;45.176;5.714;2023-09-08T14:04:05;29.00;51.00
10121;DHT22;5100;45.176;5.714;2023-09-08T14:06:32;29.00;51.20
10121;DHT22;5100;45.176;5.714;2023-09-08T14:08:59;29.00;51.40
10121;DHT22;5100;45.176;5.714;2023-09-08T14:11:26;29.00;51.10
10121;DHT22;5100;45.176;5.714;2023-09-08T14:13:52;29.00;51.40
10121;DHT22;5100;45.176;5.714;2023-09-08T14:16:19;29.10;51.50
10121;DHT22;5100;45.176;5.714;2023-09-08T14:18:45;29.10;51.60
10121;DHT22;5100;45.176;5.714;2023-09-08T14:21:11;29.10;51.30
10121;DHT22;5100;45.176;5.714;2023-09-08T14:23:37;29.10;51.20
10121;DHT22;5100;45.176;5.714;2023-09-08T14:26:04;29.10;51.20
10121;DHT22;5100;45.176;5.714;2023-09-08T14:28:30;29.10;51.30
10121;DHT22;5100;45.176;5.714;2023-09-08T14:30:59;29.10;51.50
10121;DHT22;5100;45.176;5.714;2023-09-08T14:33:26;29.20;51.60
10121;DHT22;5100;45.176;5.714;2023-09-08T14:35:52;29.20;51.50
10121;DHT22;5100;45.176;5.714;2023-09-08T14:38:20;29.20;51.60
10121;DHT22;5100;45.176;5.714;2023-09-08T14:41:00;29.20;51.60
10121;DHT22;5100;45.176;5.714;2023-09-08T14:43:27;29.20;51.80
10121;DHT22;5100;45.176;5.714;2023-09-08T14:45:55;29.20;51.80
10121;DHT22;5100;45.176;5.714;2023-09-08T14:48:23;29.20;51.90
10121;DHT22;5100;45.176;5.714;2023-09-08T14:50:50;29.30;52.00
10121;DHT22;5100;45.176;5.714;2023-09-08T14:53:16;29.30;52.10
10121;DHT22;5100;45.176;5.714;2023-09-08T14:55:42;29.30;52.20
10121;DHT22;5100;45.176;5.714;2023-09-08T14:58:11;29.30;52.20
10121;DHT22;5100;45.176;5.714;2023-09-08T15:00:39;29.30;52.00
10121;DHT22;5100;45.176;5.714;2023-09-08T15:03:06;29.30;52.10
10121;DHT22;5100;45.176;5.714;2023-09-08T15:05:33;29.30;52.10
10121;DHT22;5100;45.176;5.714;2023-09-08T15:08:00;29.30;52.20
10121;DHT22;5100;45.176;5.714;2023-09-08T15:10:26;29.30;52.40
10121;DHT22;5100;45.176;5.714;2023-09-08T15:12:52;29.30;52.30
10121;DHT22;5100;45.176;5.714;2023-09-08T15:15:18;29.40;52.30
10121;DHT22;5100;45.176;5.714;2023-09-08T15:17:55;29.30;52.30
10121;DHT22;5100;45.176;5.714;2023-09-08T15:20:22;29.40;52.20
10121;DHT22;5100;45.176;5.714;2023-09-08T15:22:48;29.40;52.30
10121;DHT22;5100;45.176;5.714;2023-09-08T15:25:14;29.40;52.30
10121;DHT22;5100;45.176;5.714;2023-09-08T15:27:41;29.40;52.40
10121;DHT22;5100;45.176;5.714;2023-09-08T15:30:08;29.40;52.40
10121;DHT22;5100;45.176;5.714;2023-09-08T15:32:35;29.40;52.40
10121;DHT22;5100;45.176;5.714;2023-09-08T15:35:02;29.40;52.30
10121;DHT22;5100;45.176;5.714;2023-09-08T15:37:28;29.40;52.40
10121;DHT22;5100;45.176;5.714;2023-09-08T15:39:54;29.40;52.30
10121;DHT22;5100;45.176;5.714;2023-09-08T15:42:21;29.40;52.20
10121;DHT22;5100;45.176;5.714;2023-09-08T15:44:46;29.40;52.20
10121;DHT22;5100;45.176;5.714;2023-09-08T15:47:12;29.40;52.20
10121;DHT22;5100;45.176;5.714;2023-09-08T15:49:39;29.40;52.20
10121;DHT22;5100;45.176;5.714;2023-09-08T15:52:06;29.40;52.10